Time;durP1;ratioP1;P1;durP2;ratioP2;P2;SDS_P1;SDS_P2;PMS_P1;PMS_P2;Temp;Humidity;BMP_temperature;BMP_pressure;BME280_temperature;BME280_humidity;BME280_pressure;Samples;Min_cycle;Max_cycle;Signal;HPM_P1;HPM_P2
2022/12/07 00:01:08;;;;;;;;;;;3.20;99.90;;;;;;5032771;28;19940;-81
2022/12/07 00:03:34;;;;;;;;;;;3.20;99.90;;;;;;5026573;28;19925;-81
2022/12/07 00:06:00;;;;;;;;;;;3.20;99.90;;;;;;5011315;28;20018;-80
2022/12/07 00:08:25;;;;;;;;;;;3.10;99.90;;;;;;5017991;28;19965;-80
2022/12/07 00:10:51;;;;;;;;;;;3.10;99.90;;;;;;5010857;28;19929;-80
2022/12/07 00:13:16;;;;;;;;;;;3.20;99.90;;;;;;5009708;28;19922;-79
2022/12/07 00:15:42;;;;;;;;;;;3.10;99.90;;;;;;5030403;28;20316;-79
2022/12/07 00:18:08;;;;;;;;;;;3.10;99.90;;;;;;5006901;28;19921;-79
2022/12/07 00:20:33;;;;;;;;;;;3.00;99.90;;;;;;5007050;28;19921;-79
2022/12/07 00:22:59;;;;;;;;;;;3.00;99.90;;;;;;5036549;28;19987;-79
2022/12/07 00:25:25;;;;;;;;;;;3.10;99.90;;;;;;5020167;28;20052;-84
2022/12/07 00:27:52;;;;;;;;;;;3.00;99.90;;;;;;5033471;28;19927;-79
2022/12/07 00:30:17;;;;;;;;;;;3.00;99.90;;;;;;5019876;28;19980;-79
2022/12/07 00:32:43;;;;;;;;;;;2.90;99.90;;;;;;5030456;28;20364;-80
2022/12/07 00:35:09;;;;;;;;;;;2.90;99.90;;;;;;5014975;28;20010;-79
2022/12/07 00:37:34;;;;;;;;;;;2.80;99.90;;;;;;5005039;28;20684;-79
2022/12/07 00:40:00;;;;;;;;;;;2.90;99.90;;;;;;5019877;28;19925;-84
2022/12/07 00:42:25;;;;;;;;;;;2.80;99.90;;;;;;5034090;28;19922;-80
2022/12/07 00:44:51;;;;;;;;;;;2.80;99.90;;;;;;5020628;28;20339;-80
2022/12/07 00:47:16;;;;;;;;;;;3.00;99.90;;;;;;5015790;28;19945;-80
2022/12/07 00:49:42;;;;;;;;;;;3.10;99.90;;;;;;5014334;28;19929;-84
2022/12/07 00:52:07;;;;;;;;;;;3.00;99.90;;;;;;5017106;28;20272;-80
2022/12/07 00:54:33;;;;;;;;;;;3.10;99.90;;;;;;5027672;28;20010;-86
2022/12/07 00:56:58;;;;;;;;;;;3.20;99.90;;;;;;5014380;28;19925;-80
2022/12/07 00:59:24;;;;;;;;;;;3.00;99.90;;;;;;5016748;28;19929;-79
2022/12/07 01:01:49;;;;;;;;;;;3.10;99.90;;;;;;5009161;28;20428;-80
2022/12/07 01:04:15;;;;;;;;;;;3.00;99.90;;;;;;5008640;28;20009;-79
2022/12/07 01:06:41;;;;;;;;;;;3.00;99.90;;;;;;5024837;28;19931;-81
2022/12/07 01:09:06;;;;;;;;;;;2.90;99.90;;;;;;5009768;28;19936;-86
2022/12/07 01:11:32;;;;;;;;;;;3.00;99.90;;;;;;5018215;28;19930;-82
2022/12/07 01:13:59;;;;;;;;;;;3.00;99.90;;;;;;5014507;28;19925;-81
2022/12/07 01:16:28;;;;;;;;;;;3.00;99.90;;;;;;5032772;28;19921;-84
2022/12/07 01:18:54;;;;;;;;;;;3.00;99.90;;;;;;5023784;28;20870;-80
2022/12/07 01:21:21;;;;;;;;;;;3.00;99.90;;;;;;5005633;28;19947;-80
2022/12/07 01:23:47;;;;;;;;;;;3.00;99.90;;;;;;5015299;28;20044;-80
2022/12/07 01:26:14;;;;;;;;;;;3.10;99.90;;;;;;5018515;28;19979;-80
2022/12/07 01:28:40;;;;;;;;;;;3.20;99.90;;;;;;5025714;28;19921;-80
2022/12/07 01:31:11;;;;;;;;;;;3.10;99.90;;;;;;5031746;28;19936;-85
2022/12/07 01:33:37;;;;;;;;;;;3.20;99.90;;;;;;5016583;28;19921;-86
2022/12/07 01:36:04;;;;;;;;;;;3.20;99.90;;;;;;5015896;28;19921;-85
2022/12/07 01:38:30;;;;;;;;;;;3.20;99.90;;;;;;5015956;28;19921;-85
2022/12/07 01:40:56;;;;;;;;;;;3.20;99.90;;;;;;4999839;28;19931;-89
2022/12/07 01:43:23;;;;;;;;;;;3.20;99.90;;;;;;5016115;28;19928;-86
2022/12/07 01:45:49;;;;;;;;;;;3.20;99.90;;;;;;4999679;28;19929;-85
2022/12/07 01:48:19;;;;;;;;;;;3.20;99.90;;;;;;5015559;28;19925;-85
2022/12/07 01:50:46;;;;;;;;;;;3.20;99.90;;;;;;4999269;28;19921;-86
2022/12/07 01:53:13;;;;;;;;;;;3.20;99.90;;;;;;5015414;28;20297;-86
2022/12/07 01:55:42;;;;;;;;;;;3.10;99.90;;;;;;5016579;28;20272;-85
2022/12/07 01:58:18;;;;;;;;;;;3.10;99.90;;;;;;4999233;28;19925;-86
2022/12/07 02:00:46;;;;;;;;;;;3.00;99.90;;;;;;5014971;28;19941;-86
2022/12/07 02:03:30;;;;;;;;;;;2.90;99.90;;;;;;5016524;28;20360;-84
2022/12/07 02:05:56;;;;;;;;;;;2.90;99.90;;;;;;4999699;28;20012;-85
2022/12/07 02:08:25;;;;;;;;;;;2.80;99.90;;;;;;4999987;28;20349;-90
2022/12/07 02:10:54;;;;;;;;;;;2.80;99.90;;;;;;4998844;28;20018;-85
2022/12/07 02:13:41;;;;;;;;;;;2.70;99.90;;;;;;4999835;28;19944;-85
2022/12/07 02:16:25;;;;;;;;;;;2.60;99.90;;;;;;5015932;28;19969;-85
2022/12/07 02:18:54;;;;;;;;;;;2.60;99.90;;;;;;5016461;28;20086;-84
2022/12/07 02:21:43;;;;;;;;;;;2.60;99.90;;;;;;4999722;28;19932;-85
2022/12/07 02:24:14;;;;;;;;;;;2.60;99.90;;;;;;5016941;28;20265;-85
2022/12/07 02:26:46;;;;;;;;;;;2.60;99.90;;;;;;4998159;28;20433;-89
2022/12/07 02:29:21;;;;;;;;;;;2.50;99.90;;;;;;5014496;28;19945;-85
2022/12/07 02:31:53;;;;;;;;;;;2.50;99.90;;;;;;5014720;28;19927;-85
2022/12/07 02:34:30;;;;;;;;;;;2.40;99.90;;;;;;5015484;28;19926;-85
2022/12/07 02:37:03;;;;;;;;;;;2.40;99.90;;;;;;5016048;28;19921;-85
2022/12/07 02:40:07;;;;;;;;;;;2.40;99.90;;;;;;4998916;28;19921;-86
2022/12/07 02:42:36;;;;;;;;;;;2.30;99.90;;;;;;5014063;28;19929;-85
2022/12/07 02:45:02;;;;;;;;;;;2.30;99.90;;;;;;5011666;28;20367;-85
2022/12/07 02:47:29;;;;;;;;;;;2.20;99.90;;;;;;5015791;28;20372;-85
2022/12/07 02:49:55;;;;;;;;;;;2.30;99.90;;;;;;5016911;28;20275;-85
2022/12/07 02:52:20;;;;;;;;;;;2.20;99.90;;;;;;5017804;28;19948;-84
2022/12/07 02:54:46;;;;;;;;;;;2.20;99.90;;;;;;5015903;28;19925;-91
2022/12/07 02:57:11;;;;;;;;;;;2.20;99.90;;;;;;5014717;28;20008;-85
2022/12/07 02:59:40;;;;;;;;;;;2.20;99.90;;;;;;4998200;28;20352;-84
2022/12/07 03:02:12;;;;;;;;;;;2.30;99.90;;;;;;5014369;28;19921;-84
2022/12/07 03:04:56;;;;;;;;;;;2.40;99.90;;;;;;5014556;28;20460;-85
2022/12/07 03:07:24;;;;;;;;;;;2.50;99.90;;;;;;5014344;28;19932;-85
2022/12/07 03:09:59;;;;;;;;;;;2.60;99.90;;;;;;5014607;28;19928;-85
2022/12/07 03:12:29;;;;;;;;;;;2.60;99.90;;;;;;5015315;28;19928;-86
2022/12/07 03:15:15;;;;;;;;;;;2.70;99.90;;;;;;5015220;28;20364;-85
2022/12/07 03:17:42;;;;;;;;;;;2.80;99.90;;;;;;5015975;28;20019;-84
2022/12/07 03:20:09;;;;;;;;;;;2.70;99.90;;;;;;4997647;28;19921;-87
2022/12/07 03:22:35;;;;;;;;;;;2.80;99.90;;;;;;5014221;28;19921;-85
2022/12/07 03:25:04;;;;;;;;;;;2.70;99.90;;;;;;5015877;28;20335;-85
2022/12/07 03:27:36;;;;;;;;;;;2.70;99.90;;;;;;4997829;28;19921;-84
2022/12/07 03:30:05;;;;;;;;;;;2.70;99.90;;;;;;5015581;28;20011;-86
2022/12/07 03:32:36;;;;;;;;;;;2.60;99.90;;;;;;5014054;28;19979;-86
2022/12/07 03:35:08;;;;;;;;;;;2.70;99.90;;;;;;4997981;28;19935;-86
2022/12/07 03:37:36;;;;;;;;;;;2.70;99.90;;;;;;5014272;28;19968;-85
2022/12/07 03:40:22;;;;;;;;;;;2.80;99.90;;;;;;5013018;28;20347;-88
2022/12/07 03:42:48;;;;;;;;;;;2.70;99.90;;;;;;5015989;28;19929;-86
2022/12/07 03:45:15;;;;;;;;;;;2.70;99.90;;;;;;5015950;28;19921;-86
2022/12/07 03:47:49;;;;;;;;;;;2.70;99.90;;;;;;5002657;28;19922;-89
2022/12/07 03:50:21;;;;;;;;;;;2.60;99.90;;;;;;5027075;28;19937;-88
2022/12/07 03:52:52;;;;;;;;;;;2.60;99.90;;;;;;5008118;28;20008;-87
2022/12/07 03:55:20;;;;;;;;;;;2.50;99.90;;;;;;5015501;28;19972;-85
2022/12/07 03:57:48;;;;;;;;;;;2.50;99.90;;;;;;5014608;28;19925;-85
2022/12/07 04:00:14;;;;;;;;;;;2.40;99.90;;;;;;5013777;28;20276;-85
2022/12/07 04:02:41;;;;;;;;;;;2.30;99.90;;;;;;5013587;28;19922;-85
2022/12/07 04:05:07;;;;;;;;;;;2.30;99.90;;;;;;5013435;28;19932;-85
2022/12/07 04:07:32;;;;;;;;;;;2.20;99.90;;;;;;4980968;28;19921;-89
2022/12/07 04:10:00;;;;;;;;;;;2.20;99.90;;;;;;4997081;28;20011;-85
2022/12/07 04:12:26;;;;;;;;;;;2.10;99.90;;;;;;4996972;28;19976;-84
2022/12/07 04:14:51;;;;;;;;;;;2.10;99.90;;;;;;5013233;28;19932;-85
2022/12/07 04:17:17;;;;;;;;;;;2.10;99.90;;;;;;4980683;28;19945;-85
2022/12/07 04:19:45;;;;;;;;;;;2.10;99.90;;;;;;5013186;28;19929;-90
2022/12/07 04:22:11;;;;;;;;;;;2.00;99.90;;;;;;4996326;28;19968;-86
2022/12/07 04:24:39;;;;;;;;;;;2.00;99.90;;;;;;5013241;28;19990;-84
2022/12/07 04:27:05;;;;;;;;;;;1.90;99.90;;;;;;4981270;28;20016;-85
2022/12/07 04:29:30;;;;;;;;;;;1.90;99.90;;;;;;4997518;28;19995;-89
2022/12/07 04:31:56;;;;;;;;;;;1.90;99.90;;;;;;4997263;28;20294;-85
2022/12/07 04:34:22;;;;;;;;;;;1.80;99.90;;;;;;4996599;28;20030;-89
2022/12/07 04:36:47;;;;;;;;;;;1.80;99.90;;;;;;4996561;28;19968;-85
2022/12/07 04:39:17;;;;;;;;;;;1.80;99.90;;;;;;4997250;28;19921;-85
2022/12/07 04:41:43;;;;;;;;;;;1.80;99.90;;;;;;4996279;28;20044;-89
2022/12/07 04:44:08;;;;;;;;;;;1.70;99.90;;;;;;4996224;28;20447;-85
2022/12/07 04:46:34;;;;;;;;;;;1.80;99.90;;;;;;4996077;28;19956;-85
2022/12/07 04:49:00;;;;;;;;;;;1.70;99.90;;;;;;5012768;28;19928;-84
2022/12/07 04:51:26;;;;;;;;;;;1.70;99.90;;;;;;5012315;28;19928;-88
2022/12/07 04:53:52;;;;;;;;;;;1.70;99.90;;;;;;5013519;28;19927;-85
2022/12/07 04:56:18;;;;;;;;;;;1.80;99.90;;;;;;5012839;28;19921;-87
2022/12/07 04:58:44;;;;;;;;;;;1.80;99.90;;;;;;5012765;28;20349;-85
2022/12/07 05:01:10;;;;;;;;;;;1.80;99.90;;;;;;4996362;28;19922;-84
2022/12/07 05:03:36;;;;;;;;;;;1.90;99.90;;;;;;4996497;28;19921;-85
2022/12/07 05:06:02;;;;;;;;;;;1.90;99.90;;;;;;5013644;28;19936;-86
2022/12/07 05:08:27;;;;;;;;;;;1.90;99.90;;;;;;5012982;28;19921;-89
2022/12/07 05:10:53;;;;;;;;;;;1.90;99.90;;;;;;4979795;28;19921;-86
2022/12/07 05:13:19;;;;;;;;;;;2.00;99.90;;;;;;5013707;28;19921;-85
2022/12/07 05:15:44;;;;;;;;;;;2.00;99.90;;;;;;4996022;28;19921;-86
2022/12/07 05:18:12;;;;;;;;;;;2.00;99.90;;;;;;4996540;28;19921;-85
2022/12/07 05:20:41;;;;;;;;;;;2.00;99.90;;;;;;4997956;28;19924;-90
2022/12/07 05:23:06;;;;;;;;;;;2.00;99.90;;;;;;5014379;28;19929;-84
2022/12/07 05:25:32;;;;;;;;;;;2.10;99.90;;;;;;5022236;28;19921;-84
2022/12/07 05:27:57;;;;;;;;;;;1.90;99.90;;;;;;4983850;28;19922;-84
2022/12/07 05:30:24;;;;;;;;;;;1.90;99.90;;;;;;5013135;28;19923;-86
2022/12/07 05:32:49;;;;;;;;;;;1.90;99.90;;;;;;5012206;28;19922;-89
2022/12/07 05:35:15;;;;;;;;;;;1.80;99.90;;;;;;5012110;28;19928;-86
2022/12/07 05:37:41;;;;;;;;;;;1.90;99.90;;;;;;5013569;28;19929;-87
2022/12/07 05:40:07;;;;;;;;;;;1.70;99.90;;;;;;5002935;28;19921;-84
2022/12/07 05:42:32;;;;;;;;;;;1.70;99.90;;;;;;5010443;28;19979;-84
2022/12/07 05:44:58;;;;;;;;;;;1.70;99.90;;;;;;5010981;28;19968;-86
2022/12/07 05:47:26;;;;;;;;;;;1.60;99.90;;;;;;5028988;28;20012;-88
2022/12/07 05:49:51;;;;;;;;;;;1.70;99.90;;;;;;5027782;28;19925;-84
2022/12/07 05:52:19;;;;;;;;;;;1.60;99.90;;;;;;5028079;28;19922;-84
2022/12/07 05:54:45;;;;;;;;;;;1.50;99.90;;;;;;5027410;28;19952;-84
2022/12/07 05:57:11;;;;;;;;;;;1.50;99.90;;;;;;5027202;28;20431;-91
2022/12/07 05:59:36;;;;;;;;;;;1.50;99.90;;;;;;5026085;28;19921;-85
2022/12/07 06:02:06;;;;;;;;;;;1.50;99.90;;;;;;5025500;28;19921;-84
2022/12/07 06:04:34;;;;;;;;;;;1.50;99.90;;;;;;5028335;28;19925;-84
2022/12/07 06:06:59;;;;;;;;;;;1.60;99.90;;;;;;5029733;28;19921;-90
2022/12/07 06:09:26;;;;;;;;;;;1.60;99.90;;;;;;5027662;28;20384;-85
2022/12/07 06:14:36;;;;;;;;;;;1.60;99.90;;;;;;5011357;28;19929;-85
2022/12/07 06:17:02;;;;;;;;;;;1.50;99.90;;;;;;5024924;28;19925;-84
2022/12/07 06:19:27;;;;;;;;;;;1.60;99.90;;;;;;5026457;28;19957;-84
2022/12/07 06:21:53;;;;;;;;;;;1.70;99.90;;;;;;5010552;28;19977;-93
2022/12/07 06:24:19;;;;;;;;;;;1.70;99.90;;;;;;5025944;28;19984;-84
2022/12/07 06:26:45;;;;;;;;;;;1.80;99.90;;;;;;5022600;28;19921;-85
2022/12/07 06:29:11;;;;;;;;;;;1.90;99.90;;;;;;5020471;28;19929;-84
2022/12/07 06:31:37;;;;;;;;;;;1.90;99.90;;;;;;5018732;28;19929;-83
2022/12/07 06:34:04;;;;;;;;;;;2.00;99.90;;;;;;5020206;28;20011;-93
2022/12/07 06:36:33;;;;;;;;;;;2.00;99.90;;;;;;5017266;28;19999;-84
2022/12/07 06:38:58;;;;;;;;;;;2.10;99.90;;;;;;4999714;28;19928;-84
2022/12/07 06:41:24;;;;;;;;;;;2.20;99.90;;;;;;4999382;28;19921;-85
2022/12/07 06:43:49;;;;;;;;;;;2.20;99.90;;;;;;5016586;28;19925;-84
2022/12/07 06:46:15;;;;;;;;;;;2.30;99.90;;;;;;5014705;28;19921;-88
2022/12/07 06:48:41;;;;;;;;;;;2.30;99.90;;;;;;4998722;28;19921;-86
2022/12/07 06:51:07;;;;;;;;;;;2.30;99.90;;;;;;4998248;28;20253;-85
2022/12/07 06:53:33;;;;;;;;;;;2.30;99.90;;;;;;4998482;28;19929;-85
2022/12/07 06:55:58;;;;;;;;;;;2.40;99.90;;;;;;5015723;28;20360;-84
2022/12/07 06:58:24;;;;;;;;;;;2.40;99.90;;;;;;4998341;28;20312;-90
2022/12/07 07:00:50;;;;;;;;;;;2.40;99.90;;;;;;5014645;28;19921;-86
2022/12/07 07:03:16;;;;;;;;;;;2.40;99.90;;;;;;4998979;28;19928;-85
2022/12/07 07:05:44;;;;;;;;;;;2.30;99.90;;;;;;5015696;28;19932;-88
2022/12/07 07:08:10;;;;;;;;;;;2.30;99.90;;;;;;5014887;28;19928;-86
2022/12/07 07:10:36;;;;;;;;;;;2.20;99.90;;;;;;4998899;28;20329;-86
2022/12/07 07:13:01;;;;;;;;;;;2.20;99.90;;;;;;5015377;28;20055;-88
2022/12/07 07:15:27;;;;;;;;;;;2.30;99.90;;;;;;5014417;28;19941;-86
2022/12/07 07:17:53;;;;;;;;;;;2.20;99.90;;;;;;5015601;28;19965;-86
2022/12/07 07:20:18;;;;;;;;;;;2.20;99.90;;;;;;5015282;28;20280;-86
2022/12/07 07:22:44;;;;;;;;;;;2.20;99.90;;;;;;4998453;28;19967;-88
2022/12/07 07:25:10;;;;;;;;;;;2.30;99.90;;;;;;5014673;28;19921;-86
2022/12/07 07:27:35;;;;;;;;;;;2.30;99.90;;;;;;4998805;28;19928;-86
2022/12/07 07:30:01;;;;;;;;;;;2.30;99.90;;;;;;5014492;28;19932;-86
2022/12/07 07:32:27;;;;;;;;;;;2.40;99.90;;;;;;5014144;28;20422;-86
2022/12/07 07:34:53;;;;;;;;;;;2.40;99.90;;;;;;4997348;28;20349;-89
2022/12/07 07:37:19;;;;;;;;;;;2.30;99.90;;;;;;5014766;28;19937;-86
2022/12/07 07:39:44;;;;;;;;;;;2.30;99.90;;;;;;5014636;28;19921;-87
2022/12/07 07:42:10;;;;;;;;;;;2.40;99.90;;;;;;5014894;28;20046;-87
2022/12/07 07:44:35;;;;;;;;;;;2.30;99.90;;;;;;5016072;28;20337;-86
2022/12/07 07:47:01;;;;;;;;;;;2.30;99.90;;;;;;5015262;28;20322;-87
2022/12/07 07:49:27;;;;;;;;;;;2.30;99.90;;;;;;5015186;28;20017;-87
2022/12/07 07:51:52;;;;;;;;;;;2.40;99.90;;;;;;4998196;28;20376;-85
2022/12/07 07:54:18;;;;;;;;;;;2.30;99.90;;;;;;5013785;28;19976;-85
2022/12/07 07:56:43;;;;;;;;;;;2.40;99.90;;;;;;4997233;28;20012;-86
2022/12/07 07:59:14;;;;;;;;;;;2.40;99.90;;;;;;5013911;28;19921;-84
2022/12/07 08:01:40;;;;;;;;;;;2.50;99.90;;;;;;5014721;28;19921;-87
2022/12/07 08:04:07;;;;;;;;;;;2.60;99.90;;;;;;5014656;28;19928;-86
2022/12/07 08:06:35;;;;;;;;;;;2.60;99.90;;;;;;5013922;28;19972;-85
2022/12/07 08:09:15;;;;;;;;;;;;;;;;;;;;;
2022/12/07 08:11:51;;;;;;;;;;;;;;;;;;;;;
2022/12/07 08:14:27;;;;;;;;;;;2.80;99.90;;;;;;5014290;28;19988;-85
2022/12/07 08:16:55;;;;;;;;;;;2.80;99.90;;;;;;5015019;28;19928;-86
2022/12/07 08:19:23;;;;;;;;;;;2.80;99.90;;;;;;4998120;28;19921;-85
2022/12/07 08:21:59;;;;;;;;;;;;;;;;;;;;;
2022/12/07 08:24:27;;;;;;;;;;;2.90;99.90;;;;;;5013819;28;19921;-86
2022/12/07 08:29:41;;;;;;;;;;;2.80;99.90;;;;;;5012819;28;19921;-87
2022/12/07 08:32:17;;;;;;;;;;;2.80;99.90;;;;;;5014012;28;20404;-86
2022/12/07 08:34:47;;;;;;;;;;;2.80;99.90;;;;;;4981242;28;19921;-85
2022/12/07 08:37:33;;;;;;;;;;;2.80;99.90;;;;;;4997948;28;19972;-87
2022/12/07 08:40:01;;;;;;;;;;;2.70;99.90;;;;;;5017039;28;19984;-85
2022/12/07 08:42:37;;;;;;;;;;;2.70;99.90;;;;;;5015169;28;19922;-86
2022/12/07 08:45:15;;;;;;;;;;;2.70;99.90;;;;;;5003797;28;19957;-86
2022/12/07 08:47:53;;;;;;;;;;;2.70;99.90;;;;;;5026527;28;20008;-90
2022/12/07 08:50:29;;;;;;;;;;;2.70;99.90;;;;;;5003908;28;19989;-87
2022/12/07 08:52:56;;;;;;;;;;;2.80;99.90;;;;;;5013602;28;19943;-85
2022/12/07 08:55:31;;;;;;;;;;;3.00;99.90;;;;;;4997774;28;19929;-85
2022/12/07 08:58:00;;;;;;;;;;;3.20;99.90;;;;;;4997332;28;19926;-86
2022/12/07 09:00:26;;;;;;;;;;;3.30;99.90;;;;;;4996677;28;19928;-85
2022/12/07 09:03:11;;;;;;;;;;;3.30;99.90;;;;;;5012797;28;19972;-87
2022/12/07 09:05:39;;;;;;;;;;;3.40;99.90;;;;;;5013149;28;19925;-86
2022/12/07 09:08:23;;;;;;;;;;;;;;;;;;;;;
2022/12/07 09:11:00;;;;;;;;;;;3.40;99.90;;;;;;5014104;28;20019;-86
2022/12/07 09:13:28;;;;;;;;;;;3.40;99.90;;;;;;4999022;28;19921;-87
2022/12/07 09:15:54;;;;;;;;;;;3.60;99.90;;;;;;4980361;28;20319;-86
2022/12/07 09:18:24;;;;;;;;;;;3.60;99.90;;;;;;5014106;28;20028;-86
2022/12/07 09:20:53;;;;;;;;;;;3.60;99.90;;;;;;4981867;28;19922;-86
2022/12/07 09:23:23;;;;;;;;;;;3.60;99.90;;;;;;4996363;28;19927;-86
2022/12/07 09:25:49;;;;;;;;;;;3.60;99.90;;;;;;5012940;28;19973;-86
2022/12/07 09:28:17;;;;;;;;;;;3.50;99.90;;;;;;4997031;28;19928;-87
2022/12/07 09:30:47;;;;;;;;;;;3.60;99.90;;;;;;4996134;28;19921;-85
2022/12/07 09:33:13;;;;;;;;;;;3.50;99.90;;;;;;5012667;28;20009;-87
2022/12/07 09:35:43;;;;;;;;;;;3.50;99.90;;;;;;4996377;28;20353;-86
2022/12/07 09:38:15;;;;;;;;;;;3.60;99.90;;;;;;5014438;28;19928;-87
2022/12/07 09:40:43;;;;;;;;;;;4.20;99.90;;;;;;5000973;28;19925;-89
2022/12/07 09:43:24;;;;;;;;;;;4.80;99.90;;;;;;5000385;28;19928;-87
2022/12/07 09:46:03;;;;;;;;;;;5.30;99.90;;;;;;5001520;28;19929;-86
2022/12/07 09:48:38;;;;;;;;;;;6.00;99.90;;;;;;5017144;28;19921;-85
2022/12/07 09:51:18;;;;;;;;;;;6.30;99.90;;;;;;5016944;28;19921;-85
2022/12/07 09:53:49;;;;;;;;;;;6.20;99.90;;;;;;5017363;28;20258;-86
2022/12/07 09:56:15;;;;;;;;;;;6.10;99.90;;;;;;4999967;28;19921;-87
2022/12/07 09:58:44;;;;;;;;;;;6.00;99.90;;;;;;4999678;28;20016;-87
2022/12/07 10:01:12;;;;;;;;;;;5.80;99.90;;;;;;5000264;28;19921;-85
2022/12/07 10:03:44;;;;;;;;;;;5.60;99.90;;;;;;5000648;28;20384;-87
2022/12/07 10:06:14;;;;;;;;;;;5.50;99.90;;;;;;5016133;28;19968;-86
2022/12/07 10:08:42;;;;;;;;;;;5.30;99.90;;;;;;4999915;28;19929;-86
2022/12/07 10:11:11;;;;;;;;;;;5.20;99.90;;;;;;4999388;28;19921;-85
2022/12/07 10:13:43;;;;;;;;;;;5.10;99.90;;;;;;4999827;28;19921;-85
2022/12/07 10:16:31;;;;;;;;;;;5.00;99.90;;;;;;5015914;28;19976;-85
2022/12/07 10:18:56;;;;;;;;;;;4.90;99.90;;;;;;4999869;28;19976;-85
2022/12/07 10:21:27;;;;;;;;;;;4.80;99.90;;;;;;5016760;28;19925;-86
2022/12/07 10:24:04;;;;;;;;;;;4.70;99.90;;;;;;4999389;28;19976;-85
2022/12/07 10:26:50;;;;;;;;;;;4.70;99.90;;;;;;5015811;28;20339;-85
2022/12/07 10:29:22;;;;;;;;;;;4.70;99.90;;;;;;5015502;28;19971;-86
2022/12/07 10:31:56;;;;;;;;;;;4.70;99.90;;;;;;4999743;28;19921;-85
2022/12/07 10:34:26;;;;;;;;;;;4.60;99.90;;;;;;5015849;28;19959;-86
2022/12/07 10:36:53;;;;;;;;;;;4.60;99.90;;;;;;5015498;28;19976;-86
2022/12/07 10:39:20;;;;;;;;;;;4.60;99.90;;;;;;4999386;28;19921;-87
2022/12/07 10:41:53;;;;;;;;;;;4.60;99.90;;;;;;5016326;28;20364;-86
2022/12/07 10:44:33;;;;;;;;;;;;;;;;;;;;;
2022/12/07 10:47:15;;;;;;;;;;;4.70;99.90;;;;;;5015336;28;19921;-87
2022/12/07 10:49:48;;;;;;;;;;;4.80;99.90;;;;;;4999392;28;19921;-87
2022/12/07 10:52:16;;;;;;;;;;;5.00;99.90;;;;;;5015338;28;19921;-87
2022/12/07 10:54:50;;;;;;;;;;;5.10;99.90;;;;;;5015879;28;20445;-87
2022/12/07 10:57:33;;;;;;;;;;;5.10;99.90;;;;;;5015418;28;19929;-87
2022/12/07 11:00:08;;;;;;;;;;;5.20;99.90;;;;;;5014592;28;20341;-86
2022/12/07 11:02:49;;;;;;;;;;;5.20;99.90;;;;;;5015949;28;19925;-87
2022/12/07 11:05:14;;;;;;;;;;;5.30;99.90;;;;;;5014562;28;20215;-85
2022/12/07 11:07:57;;;;;;;;;;;5.30;99.90;;;;;;4998518;28;19952;-86
2022/12/07 11:10:42;;;;;;;;;;;5.30;99.90;;;;;;5016021;28;20387;-87
2022/12/07 11:13:11;;;;;;;;;;;5.30;99.90;;;;;;5020110;28;19922;-88
2022/12/07 11:15:43;;;;;;;;;;;5.30;99.90;;;;;;5014453;28;19922;-86
2022/12/07 11:18:21;;;;;;;;;;;5.30;99.90;;;;;;5014670;28;19927;-86
2022/12/07 11:20:58;;;;;;;;;;;5.30;99.90;;;;;;4999154;28;19928;-87
2022/12/07 11:23:33;;;;;;;;;;;5.40;99.90;;;;;;5015255;28;20354;-86
2022/12/07 11:26:13;;;;;;;;;;;5.40;99.90;;;;;;5014827;28;19927;-86
2022/12/07 11:28:51;;;;;;;;;;;5.40;99.90;;;;;;5014298;28;20012;-87
2022/12/07 11:31:36;;;;;;;;;;;5.50;99.90;;;;;;4998258;28;20012;-86
2022/12/07 11:34:21;;;;;;;;;;;5.50;99.90;;;;;;5014048;28;19929;-86
2022/12/07 11:36:48;;;;;;;;;;;5.50;99.90;;;;;;4998370;28;19928;-86
2022/12/07 11:39:49;;;;;;;;;;;5.60;99.90;;;;;;4997949;28;20395;-85
2022/12/07 11:42:23;;;;;;;;;;;5.60;99.90;;;;;;5013082;28;20020;-86
2022/12/07 11:44:53;;;;;;;;;;;5.60;99.90;;;;;;5027666;28;20016;-87
2022/12/07 11:47:34;;;;;;;;;;;5.60;99.90;;;;;;5015069;28;19928;-87
2022/12/07 11:50:13;;;;;;;;;;;5.60;99.90;;;;;;5013467;28;19929;-87
2022/12/07 11:52:51;;;;;;;;;;;5.70;99.90;;;;;;4998271;28;20072;-88
2022/12/07 11:55:33;;;;;;;;;;;5.70;99.90;;;;;;5014080;28;19921;-86
2022/12/07 11:58:04;;;;;;;;;;;5.60;99.90;;;;;;5014768;28;20008;-86
2022/12/07 12:00:29;;;;;;;;;;;5.70;99.90;;;;;;5014112;28;19926;-86
2022/12/07 12:02:55;;;;;;;;;;;5.60;99.90;;;;;;4997477;28;20364;-85
2022/12/07 12:05:26;;;;;;;;;;;5.60;99.90;;;;;;5013895;28;19922;-91
2022/12/07 12:08:13;;;;;;;;;;;5.70;99.90;;;;;;5013759;28;19929;-86
2022/12/07 12:10:44;;;;;;;;;;;5.70;99.90;;;;;;4997431;28;19929;-87
2022/12/07 12:13:19;;;;;;;;;;;5.70;99.90;;;;;;5014229;28;19971;-87
2022/12/07 12:16:04;;;;;;;;;;;5.80;99.90;;;;;;5014241;28;20276;-87
2022/12/07 12:18:44;;;;;;;;;;;5.80;99.90;;;;;;5015457;28;19922;-86
2022/12/07 12:21:29;;;;;;;;;;;;;;;;;;;;;
2022/12/07 12:24:03;;;;;;;;;;;5.80;99.90;;;;;;5014169;28;19926;-86
2022/12/07 12:26:35;;;;;;;;;;;5.70;99.90;;;;;;5013548;28;19928;-87
2022/12/07 12:29:08;;;;;;;;;;;5.70;99.90;;;;;;5014606;28;20427;-86
2022/12/07 12:32:08;;;;;;;;;;;5.70;99.90;;;;;;4997617;28;19975;-86
2022/12/07 12:34:40;;;;;;;;;;;5.70;99.90;;;;;;5014301;28;20359;-86
2022/12/07 12:37:32;;;;;;;;;;;5.70;99.90;;;;;;4997145;28;20012;-87
2022/12/07 12:40:16;;;;;;;;;;;5.80;99.90;;;;;;5012120;28;19921;-86
2022/12/07 12:42:48;;;;;;;;;;;5.90;99.90;;;;;;4997699;28;19925;-86
2022/12/07 12:45:29;;;;;;;;;;;6.10;99.90;;;;;;4997164;28;20256;-85
2022/12/07 12:48:32;;;;;;;;;;;6.00;99.90;;;;;;4996125;28;19975;-86
2022/12/07 12:51:19;;;;;;;;;;;6.10;99.90;;;;;;4996408;28;20291;-88
2022/12/07 12:53:45;;;;;;;;;;;6.20;99.90;;;;;;5015199;28;20013;-86
2022/12/07 12:56:16;;;;;;;;;;;6.20;99.90;;;;;;4998507;28;20012;-86
2022/12/07 12:58:45;;;;;;;;;;;6.30;99.90;;;;;;4997664;28;19925;-87
2022/12/07 13:01:33;;;;;;;;;;;6.30;99.90;;;;;;5013478;28;19943;-86
2022/12/07 13:04:02;;;;;;;;;;;6.30;99.90;;;;;;5013025;28;20020;-88
2022/12/07 13:06:33;;;;;;;;;;;6.30;99.90;;;;;;4997061;28;19944;-87
2022/12/07 13:09:03;;;;;;;;;;;6.30;99.90;;;;;;5012921;28;19964;-88
2022/12/07 13:11:38;;;;;;;;;;;6.30;99.90;;;;;;5012724;28;19921;-87
2022/12/07 13:14:22;;;;;;;;;;;6.30;99.90;;;;;;5017524;28;20378;-86
2022/12/07 13:16:53;;;;;;;;;;;6.30;99.90;;;;;;5016971;28;19921;-88
2022/12/07 13:19:45;;;;;;;;;;;6.30;99.90;;;;;;4984738;28;19969;-89
2022/12/07 13:22:29;;;;;;;;;;;6.30;99.90;;;;;;5016851;28;19925;-89
2022/12/07 13:25:17;;;;;;;;;;;6.30;99.90;;;;;;5000650;28;19921;-87
2022/12/07 13:27:46;;;;;;;;;;;6.40;99.90;;;;;;5017653;28;19921;-87
2022/12/07 13:30:16;;;;;;;;;;;6.40;99.90;;;;;;5017901;28;19976;-87
2022/12/07 13:32:43;;;;;;;;;;;6.40;99.90;;;;;;5016171;28;20318;-86
2022/12/07 13:35:28;;;;;;;;;;;6.40;99.90;;;;;;5016702;28;19921;-87
2022/12/07 13:37:53;;;;;;;;;;;6.50;99.90;;;;;;5016710;28;19921;-89
2022/12/07 13:40:20;;;;;;;;;;;6.50;99.90;;;;;;5016650;28;19921;-87
2022/12/07 13:42:46;;;;;;;;;;;6.50;99.90;;;;;;5016801;28;20249;-85
2022/12/07 13:45:47;;;;;;;;;;;6.50;99.90;;;;;;5000112;28;19980;-87
2022/12/07 13:48:13;;;;;;;;;;;6.40;99.90;;;;;;5015448;28;20392;-85
2022/12/07 13:50:38;;;;;;;;;;;6.30;99.90;;;;;;5017875;28;19921;-86
2022/12/07 13:53:14;;;;;;;;;;;6.20;99.90;;;;;;5017342;28;19967;-85
2022/12/07 13:55:44;;;;;;;;;;;6.10;99.90;;;;;;5000448;28;19928;-85
2022/12/07 13:58:12;;;;;;;;;;;5.90;99.90;;;;;;5000110;28;19921;-87
2022/12/07 14:00:42;;;;;;;;;;;5.90;99.90;;;;;;5001664;28;19944;-86
2022/12/07 14:03:13;;;;;;;;;;;5.90;99.90;;;;;;5017011;28;20004;-85
2022/12/07 14:05:42;;;;;;;;;;;5.80;99.90;;;;;;5005136;28;19928;-84
2022/12/07 14:08:15;;;;;;;;;;;5.80;99.90;;;;;;5010271;28;19921;-88
2022/12/07 14:10:52;;;;;;;;;;;5.70;99.90;;;;;;5007614;28;20261;-87
2022/12/07 14:13:41;;;;;;;;;;;5.70;99.90;;;;;;5017971;28;19921;-86
2022/12/07 14:16:27;;;;;;;;;;;5.60;99.90;;;;;;5013025;28;20012;-88
2022/12/07 14:19:02;;;;;;;;;;;5.60;99.90;;;;;;5016699;28;19921;-86
2022/12/07 14:21:31;;;;;;;;;;;5.50;99.90;;;;;;4999399;28;19928;-85
2022/12/07 14:24:28;;;;;;;;;;;5.50;99.90;;;;;;4998626;28;19926;-85
2022/12/07 14:26:56;;;;;;;;;;;5.50;99.90;;;;;;5015779;28;19925;-89
2022/12/07 14:29:32;;;;;;;;;;;5.50;99.90;;;;;;4999326;28;19929;-87
2022/12/07 14:32:19;;;;;;;;;;;5.40;99.90;;;;;;5016178;28;20439;-87
2022/12/07 14:35:00;;;;;;;;;;;5.40;99.90;;;;;;4999440;28;19976;-87
2022/12/07 14:37:33;;;;;;;;;;;5.40;99.90;;;;;;4999043;28;20275;-86
2022/12/07 14:40:01;;;;;;;;;;;5.40;99.90;;;;;;5015325;28;19971;-87
2022/12/07 14:42:39;;;;;;;;;;;5.30;99.90;;;;;;5016476;28;20008;-86
2022/12/07 14:45:12;;;;;;;;;;;5.30;99.90;;;;;;5017060;28;19921;-86
2022/12/07 14:47:38;;;;;;;;;;;5.20;99.90;;;;;;4999432;28;19922;-86
2022/12/07 14:50:07;;;;;;;;;;;5.30;99.90;;;;;;5015130;28;20422;-91
2022/12/07 14:52:33;;;;;;;;;;;5.20;99.90;;;;;;4998574;28;19925;-87
2022/12/07 14:55:09;;;;;;;;;;;;;;;;;;;;;
2022/12/07 14:57:45;;;;;;;;;;;5.00;99.90;;;;;;5000987;28;20318;-87
2022/12/07 15:00:16;;;;;;;;;;;4.90;99.90;;;;;;4999095;28;19993;-87
2022/12/07 15:02:50;;;;;;;;;;;4.80;99.90;;;;;;5015511;28;19925;-88